createdAt,value
2023-03-29T00:02:01.932Z,1.60
2023-03-29T00:04:28.621Z,1.98
2023-03-29T00:06:55.685Z,1.80
2023-03-29T00:09:23.340Z,1.63
2023-03-29T00:11:49.759Z,1.52
2023-03-29T00:14:16.428Z,2.00
2023-03-29T00:16:44.753Z,1.60
2023-03-29T00:19:11.437Z,1.42
2023-03-29T00:21:38.010Z,2.08
2023-03-29T00:24:04.874Z,1.50
2023-03-29T00:26:31.317Z,1.52
2023-03-29T00:28:57.769Z,1.73
2023-03-29T00:31:25.092Z,1.58
2023-03-29T00:33:52.160Z,1.50
2023-03-29T00:36:18.639Z,1.52
2023-03-29T00:38:45.580Z,1.40
2023-03-29T00:41:12.279Z,1.73
2023-03-29T00:43:59.600Z,1.45
2023-03-29T00:46:28.124Z,1.50
2023-03-29T00:48:58.822Z,1.60
2023-03-29T00:51:28.113Z,1.50
2023-03-29T00:54:00.599Z,1.50
2023-03-29T00:56:38.723Z,1.30
2023-03-29T00:59:09.857Z,1.80
2023-03-29T01:01:54.638Z,1.30
2023-03-29T01:04:55.481Z,1.67
2023-03-29T01:07:23.262Z,1.92
2023-03-29T01:10:04.494Z,1.52
2023-03-29T01:12:36.030Z,1.55
2023-03-29T01:15:26.396Z,1.67
2023-03-29T01:18:13.982Z,1.73
2023-03-29T01:21:36.213Z,1.58
2023-03-29T01:24:47.496Z,1.75
2023-03-29T01:27:49.977Z,1.40
2023-03-29T01:30:24.858Z,1.40
2023-03-29T01:32:59.841Z,1.55
2023-03-29T01:35:43.555Z,1.40
2023-03-29T01:38:23.394Z,1.67
2023-03-29T01:40:50.077Z,1.50
2023-03-29T01:43:34.383Z,1.58
2023-03-29T01:46:42.471Z,1.33
2023-03-29T01:49:25.484Z,1.38
2023-03-29T01:51:59.952Z,1.50
2023-03-29T01:54:33.624Z,1.60
2023-03-29T01:57:04.674Z,1.40
2023-03-29T01:59:37.395Z,1.40
2023-03-29T02:02:08.077Z,1.50
2023-03-29T02:04:39.706Z,1.65
2023-03-29T02:07:08.752Z,1.55
2023-03-29T02:09:37.726Z,2.00
2023-03-29T02:12:08.174Z,1.60
2023-03-29T02:14:35.511Z,1.52
2023-03-29T02:17:19.572Z,1.65
2023-03-29T02:19:52.405Z,1.40
2023-03-29T02:22:26.485Z,1.20
2023-03-29T02:24:58.961Z,1.33
2023-03-29T02:27:29.124Z,1.60
2023-03-29T02:29:57.083Z,1.42
2023-03-29T02:32:48.937Z,1.40
2023-03-29T02:35:48.395Z,1.20
2023-03-29T02:38:17.065Z,1.63
2023-03-29T02:40:46.627Z,1.52
2023-03-29T02:43:15.754Z,1.65
2023-03-29T02:45:44.173Z,1.30
2023-03-29T02:48:17.745Z,1.40
2023-03-29T02:50:49.924Z,1.80
2023-03-29T02:53:22.985Z,1.70
2023-03-29T02:55:52.779Z,1.77
2023-03-29T02:58:20.541Z,1.63
2023-03-29T03:00:48.912Z,1.80
2023-03-29T03:03:15.583Z,1.90
2023-03-29T03:05:44.232Z,1.85
2023-03-29T03:08:10.900Z,1.80
2023-03-29T03:10:38.005Z,2.17
2023-03-29T03:13:04.571Z,1.85
2023-03-29T03:15:35.493Z,1.80
2023-03-29T03:18:03.559Z,2.08
2023-03-29T03:20:31.040Z,2.00
2023-03-29T03:22:58.437Z,1.92
2023-03-29T03:25:25.043Z,1.95
2023-03-29T03:27:51.749Z,2.13
2023-03-29T03:30:21.984Z,2.60
2023-03-29T03:33:28.162Z,1.95
2023-03-29T03:36:26.015Z,2.10
2023-03-29T03:41:20.705Z,2.13
2023-03-29T03:43:48.876Z,2.30
2023-03-29T03:46:17.132Z,2.40
2023-03-29T03:48:45.905Z,2.10
2023-03-29T03:51:19.907Z,2.47
2023-03-29T03:53:46.769Z,2.50
2023-03-29T03:56:13.957Z,2.13
2023-03-29T03:58:59.164Z,2.15
2023-03-29T04:01:28.068Z,2.40
2023-03-29T04:04:04.525Z,1.60
2023-03-29T04:06:31.332Z,1.90
2023-03-29T04:09:18.076Z,2.22
2023-03-29T04:11:52.956Z,1.70
2023-03-29T04:14:20.496Z,1.85
2023-03-29T04:17:07.236Z,1.80
2023-03-29T04:19:48.035Z,2.17
2023-03-29T04:22:14.696Z,1.80
2023-03-29T04:24:42.003Z,1.55
2023-03-29T04:27:24.919Z,1.80
2023-03-29T04:29:51.521Z,1.75
2023-03-29T04:32:25.939Z,1.80
2023-03-29T04:34:58.157Z,1.98
2023-03-29T04:37:24.927Z,2.15
2023-03-29T04:39:54.589Z,1.88
2023-03-29T04:42:24.587Z,2.13
2023-03-29T04:44:51.440Z,2.17
2023-03-29T04:47:29.531Z,2.35
2023-03-29T04:50:01.588Z,2.50
2023-03-29T04:52:38.668Z,1.90
2023-03-29T04:55:07.347Z,2.13
2023-03-29T04:57:41.712Z,1.83
2023-03-29T05:00:17.254Z,2.10
2023-03-29T05:03:07.426Z,2.15
2023-03-29T05:05:38.513Z,2.20
2023-03-29T05:08:07.111Z,2.13
2023-03-29T05:10:44.401Z,2.10
2023-03-29T05:13:12.278Z,2.20
2023-03-29T05:15:41.352Z,2.42
2023-03-29T05:18:07.995Z,2.10
2023-03-29T05:20:34.698Z,2.00
2023-03-29T05:23:01.923Z,1.90
2023-03-29T05:25:52.911Z,1.95
2023-03-29T05:28:19.721Z,2.08
2023-03-29T05:30:47.402Z,1.95
2023-03-29T05:33:20.910Z,2.38
2023-03-29T05:35:47.457Z,2.40
2023-03-29T05:38:14.088Z,2.40
2023-03-29T05:40:41.737Z,2.10
2023-03-29T05:43:33.870Z,2.00
2023-03-29T05:46:10.519Z,1.92
2023-03-29T05:48:41.609Z,2.53
2023-03-29T05:51:08.455Z,2.30
2023-03-29T05:53:35.971Z,1.70
2023-03-29T05:56:04.114Z,2.10
2023-03-29T05:58:31.166Z,1.73
2023-03-29T06:01:00.336Z,1.80
2023-03-29T06:03:50.887Z,1.80
2023-03-29T06:06:21.280Z,2.20
2023-03-29T06:08:48.037Z,2.20
2023-03-29T06:11:34.915Z,2.13
2023-03-29T06:14:20.864Z,2.13
2023-03-29T06:16:53.470Z,2.17
2023-03-29T06:19:20.417Z,2.08
2023-03-29T06:21:47.314Z,2.10
2023-03-29T06:24:18.667Z,2.60
2023-03-29T06:26:52.287Z,3.10
2023-03-29T06:29:21.965Z,2.60
2023-03-29T06:31:49.110Z,2.17
2023-03-29T06:34:38.078Z,2.67
2023-03-29T06:37:27.583Z,2.70
2023-03-29T06:40:06.958Z,3.15
2023-03-29T06:42:40.655Z,3.22
2023-03-29T06:45:32.430Z,3.42
2023-03-29T06:48:03.031Z,3.92
2023-03-29T06:50:30.960Z,4.50
2023-03-29T06:53:07.284Z,3.45
2023-03-29T06:55:34.516Z,4.10
2023-03-29T06:58:15.340Z,3.28
2023-03-29T07:00:42.353Z,3.30
2023-03-29T07:03:20.516Z,2.80
2023-03-29T07:05:51.915Z,3.05
2023-03-29T07:08:21.418Z,2.53
2023-03-29T07:11:08.248Z,3.22
2023-03-29T07:14:03.790Z,2.42
2023-03-29T07:16:30.384Z,3.00
2023-03-29T07:19:09.440Z,2.70
2023-03-29T07:21:53.012Z,2.83
2023-03-29T07:24:22.593Z,3.17
2023-03-29T07:27:03.195Z,2.55
2023-03-29T07:29:31.518Z,2.60
2023-03-29T07:31:58.096Z,2.50
2023-03-29T07:34:43.040Z,2.88
2023-03-29T07:37:17.423Z,2.85
2023-03-29T07:39:45.861Z,2.85
2023-03-29T07:42:32.745Z,3.25
2023-03-29T07:44:59.845Z,3.08
2023-03-29T07:47:33.034Z,3.08
2023-03-29T07:49:59.704Z,2.83
2023-03-29T07:52:28.536Z,3.08
2023-03-29T07:54:55.684Z,2.60
2023-03-29T07:57:44.102Z,2.67
2023-03-29T08:00:16.860Z,2.83
2023-03-29T08:02:54.809Z,2.80
2023-03-29T08:05:37.803Z,3.00
2023-03-29T08:08:10.887Z,2.50
2023-03-29T08:10:47.386Z,2.67
2023-03-29T08:13:32.212Z,2.83
2023-03-29T08:16:28.063Z,2.30
2023-03-29T08:19:03.515Z,2.65
2023-03-29T08:21:47.272Z,2.47
2023-03-29T08:24:14.592Z,2.75
2023-03-29T08:26:48.740Z,2.53
2023-03-29T08:29:18.234Z,2.90
2023-03-29T08:31:45.123Z,2.35
2023-03-29T08:34:11.593Z,2.78
2023-03-29T08:36:59.084Z,2.22
2023-03-29T08:39:35.308Z,3.22
2023-03-29T08:42:56.561Z,2.60
2023-03-29T08:45:35.393Z,2.50
2023-03-29T08:48:25.796Z,2.47
2023-03-29T08:50:58.419Z,2.20
2023-03-29T08:53:35.498Z,2.42
2023-03-29T08:56:18.460Z,2.28
2023-03-29T08:58:57.765Z,2.60
2023-03-29T09:01:33.619Z,3.05
2023-03-29T09:04:08.897Z,2.30
2023-03-29T09:06:50.211Z,2.20
2023-03-29T09:09:23.522Z,2.45
2023-03-29T09:14:50.653Z,2.33
2023-03-29T09:17:30.498Z,2.50
2023-03-29T09:20:13.937Z,2.40
2023-03-29T09:22:54.979Z,2.40
2023-03-29T09:25:27.425Z,2.10
2023-03-29T09:28:05.627Z,2.42
2023-03-29T09:31:06.051Z,2.42
2023-03-29T09:33:49.604Z,2.00
2023-03-29T09:36:32.912Z,2.38
2023-03-29T09:39:00.574Z,2.30
2023-03-29T09:41:43.559Z,2.70
2023-03-29T09:46:55.902Z,2.38
2023-03-29T09:49:31.239Z,2.08
2023-03-29T09:52:05.948Z,2.17
2023-03-29T09:54:33.013Z,2.17
2023-03-29T09:57:22.239Z,2.22
2023-03-29T09:59:51.641Z,2.50
2023-03-29T10:02:20.293Z,2.15
2023-03-29T10:04:55.333Z,2.10
2023-03-29T10:07:22.777Z,2.08
2023-03-29T10:09:56.249Z,2.03
2023-03-29T10:12:23.154Z,2.10
2023-03-29T10:14:53.618Z,1.88
2023-03-29T10:17:25.286Z,1.95
2023-03-29T10:19:56.921Z,2.00
2023-03-29T10:22:37.502Z,1.65
2023-03-29T10:25:09.407Z,2.03
2023-03-29T10:27:36.368Z,1.90
2023-03-29T10:30:12.718Z,1.83
2023-03-29T10:32:40.584Z,2.05
2023-03-29T10:35:21.435Z,2.25
2023-03-29T10:37:53.698Z,2.22
2023-03-29T10:40:26.103Z,2.15
2023-03-29T10:42:57.450Z,2.05
2023-03-29T10:45:33.959Z,2.55
2023-03-29T10:48:01.208Z,2.33
2023-03-29T10:50:37.892Z,2.30
2023-03-29T10:53:14.484Z,2.20
2023-03-29T10:55:52.674Z,2.30
2023-03-29T10:58:58.177Z,2.28
2023-03-29T11:01:37.777Z,2.38
2023-03-29T11:04:30.633Z,2.38
2023-03-29T11:07:12.280Z,2.20
2023-03-29T11:10:11.077Z,2.50
2023-03-29T11:13:14.042Z,2.35
2023-03-29T11:16:02.561Z,2.58
2023-03-29T11:18:48.257Z,2.33
2023-03-29T11:21:17.878Z,2.28
2023-03-29T11:24:07.814Z,2.70
2023-03-29T11:26:51.848Z,2.20
2023-03-29T11:29:27.006Z,1.88
2023-03-29T11:32:10.999Z,3.15
2023-03-29T11:35:12.145Z,2.38
2023-03-29T11:38:34.454Z,2.20
2023-03-29T11:41:25.262Z,2.60
2023-03-29T11:44:01.968Z,2.08
2023-03-29T11:46:33.940Z,3.33
2023-03-29T11:49:11.103Z,2.38
2023-03-29T11:51:44.227Z,2.35
2023-03-29T11:54:20.554Z,2.72
2023-03-29T11:56:55.179Z,2.30
2023-03-29T11:59:28.606Z,1.98
2023-03-29T12:02:01.758Z,3.17
2023-03-29T12:04:37.806Z,2.30
2023-03-29T12:07:21.014Z,2.28
2023-03-29T12:09:50.890Z,2.30
2023-03-29T12:12:57.329Z,2.22
2023-03-29T12:15:26.812Z,2.38
2023-03-29T12:18:14.666Z,2.30
2023-03-29T12:20:42.080Z,2.05
2023-03-29T12:23:15.808Z,2.50
2023-03-29T12:26:02.234Z,2.97
2023-03-29T12:28:59.778Z,2.33
2023-03-29T12:31:57.605Z,3.28
2023-03-29T12:34:51.031Z,2.40
2023-03-29T12:37:44.635Z,2.50
2023-03-29T12:40:40.374Z,2.53
2023-03-29T12:43:38.330Z,2.30
2023-03-29T12:46:32.929Z,2.30
2023-03-29T12:49:29.625Z,2.35
2023-03-29T12:52:00.089Z,2.35
2023-03-29T12:54:30.634Z,2.22
2023-03-29T12:57:01.890Z,2.42
2023-03-29T12:59:43.374Z,2.25
2023-03-29T13:02:13.973Z,2.28
2023-03-29T13:04:43.801Z,2.47
2023-03-29T13:07:22.542Z,1.75
2023-03-29T13:09:52.999Z,2.10
2023-03-29T13:12:35.035Z,1.70
2023-03-29T13:15:23.705Z,2.03
2023-03-29T13:18:06.139Z,2.08
2023-03-29T13:20:51.026Z,1.67
2023-03-29T13:23:45.621Z,1.83
2023-03-29T13:26:31.455Z,2.10
2023-03-29T13:29:07.322Z,1.85
2023-03-29T13:31:44.500Z,1.73
2023-03-29T13:34:48.726Z,2.17
2023-03-29T13:37:41.373Z,2.10
2023-03-29T13:40:44.633Z,1.60
2023-03-29T13:43:20.222Z,1.70
2023-03-29T13:45:58.960Z,1.95
2023-03-29T13:48:35.808Z,1.60
2023-03-29T13:51:19.176Z,2.13
2023-03-29T13:53:49.737Z,2.10
2023-03-29T13:56:23.256Z,1.70
2023-03-29T13:58:59.106Z,2.03
2023-03-29T14:01:58.170Z,1.83
2023-03-29T14:04:30.322Z,2.03
2023-03-29T14:06:57.857Z,2.17
2023-03-29T14:09:31.505Z,1.83
2023-03-29T14:12:00.646Z,1.98
2023-03-29T14:14:30.300Z,2.05
2023-03-29T14:16:57.192Z,1.90
2023-03-29T14:19:36.244Z,1.88
2023-03-29T14:22:08.359Z,1.83
2023-03-29T14:24:39.468Z,2.10
2023-03-29T14:27:10.196Z,1.55
2023-03-29T14:29:36.924Z,1.92
2023-03-29T14:32:18.508Z,1.52
2023-03-29T14:34:49.646Z,2.03
2023-03-29T14:37:21.920Z,1.70
2023-03-29T14:39:49.433Z,2.13
2023-03-29T14:42:21.245Z,1.92
2023-03-29T14:44:50.148Z,1.70
2023-03-29T14:47:38.996Z,1.40
2023-03-29T14:50:06.228Z,2.00
2023-03-29T14:52:34.360Z,1.90
2023-03-29T14:55:02.601Z,1.67
2023-03-29T14:57:35.625Z,1.98
2023-03-29T15:00:16.195Z,1.70
2023-03-29T15:02:53.237Z,1.67
2023-03-29T15:05:35.140Z,1.42
2023-03-29T15:08:02.778Z,1.50
2023-03-29T15:10:32.779Z,1.50
2023-03-29T15:13:02.532Z,1.50
2023-03-29T15:15:32.779Z,1.70
2023-03-29T15:18:00.884Z,1.42
2023-03-29T15:20:36.551Z,1.73
2023-03-29T15:23:07.688Z,1.60
2023-03-29T15:25:39.394Z,1.48
2023-03-29T15:28:06.141Z,1.70
2023-03-29T15:30:34.740Z,1.27
2023-03-29T15:33:20.375Z,1.40
2023-03-29T15:35:50.422Z,1.45
2023-03-29T15:38:17.669Z,1.45
2023-03-29T15:40:44.280Z,1.80
2023-03-29T15:43:11.216Z,1.23
2023-03-29T15:45:38.002Z,1.50
2023-03-29T15:48:20.011Z,1.63
2023-03-29T15:50:46.644Z,1.10
2023-03-29T15:53:15.529Z,1.63
2023-03-29T15:55:45.801Z,1.30
2023-03-29T15:58:15.074Z,1.60
2023-03-29T16:00:44.490Z,1.48
2023-03-29T16:03:15.054Z,1.40
2023-03-29T16:05:43.528Z,1.33
2023-03-29T16:08:11.287Z,1.17
2023-03-29T16:10:38.841Z,1.50
2023-03-29T16:13:05.824Z,1.48
2023-03-29T16:15:33.720Z,1.80
2023-03-29T16:18:00.408Z,1.15
2023-03-29T16:20:26.973Z,1.15
2023-03-29T16:22:54.123Z,1.40
2023-03-29T16:25:24.220Z,1.60
2023-03-29T16:27:52.738Z,1.20
2023-03-29T16:30:19.834Z,1.35
2023-03-29T16:32:46.529Z,1.20
2023-03-29T16:35:25.083Z,1.48
2023-03-29T16:37:51.557Z,1.45
2023-03-29T16:40:18.138Z,1.50
2023-03-29T16:42:44.596Z,1.50
2023-03-29T16:45:15.793Z,2.08
2023-03-29T16:47:46.061Z,2.00
2023-03-29T16:52:40.847Z,1.27
2023-03-29T16:55:12.063Z,1.80
2023-03-29T16:57:40.117Z,1.90
2023-03-29T17:00:10.822Z,1.75
2023-03-29T17:02:37.621Z,1.67
2023-03-29T17:05:04.646Z,1.80
2023-03-29T17:07:31.192Z,1.63
2023-03-29T17:09:57.640Z,1.73
2023-03-29T17:12:24.229Z,1.50
2023-03-29T17:14:51.210Z,1.75
2023-03-29T17:17:17.596Z,2.20
2023-03-29T17:19:44.264Z,2.08
2023-03-29T17:22:10.678Z,1.83
2023-03-29T17:24:37.102Z,1.80
2023-03-29T17:27:03.931Z,1.80
2023-03-29T17:29:30.646Z,1.73
2023-03-29T17:31:57.132Z,1.77
2023-03-29T17:34:23.655Z,1.92
2023-03-29T17:36:53.302Z,2.03
2023-03-29T17:39:19.787Z,1.63
2023-03-29T17:41:47.229Z,1.70
2023-03-29T17:44:13.772Z,2.00
2023-03-29T17:46:40.396Z,2.15
2023-03-29T17:49:07.246Z,2.35
2023-03-29T17:51:33.999Z,1.98
2023-03-29T17:54:01.588Z,1.80
2023-03-29T17:56:28.280Z,1.77
2023-03-29T17:58:55.394Z,2.10
2023-03-29T18:01:22.187Z,1.80
2023-03-29T18:03:48.807Z,2.15
2023-03-29T18:06:18.071Z,2.03
2023-03-29T18:08:44.671Z,2.17
2023-03-29T18:11:22.268Z,2.15
2023-03-29T18:13:50.419Z,2.08
2023-03-29T18:16:17.001Z,1.70
2023-03-29T18:18:43.712Z,1.85
2023-03-29T18:21:10.771Z,2.28
2023-03-29T18:23:39.902Z,1.70
2023-03-29T18:26:07.439Z,2.03
2023-03-29T18:28:36.200Z,1.80
2023-03-29T18:31:03.992Z,1.90
2023-03-29T18:33:35.165Z,3.55
2023-03-29T18:36:04.697Z,2.60
2023-03-29T18:38:35.149Z,3.42
2023-03-29T18:41:03.223Z,2.35
2023-03-29T18:43:31.808Z,2.10
2023-03-29T18:45:58.337Z,2.40
2023-03-29T18:48:25.053Z,2.63
2023-03-29T18:50:52.136Z,3.00
2023-03-29T18:53:19.540Z,3.05
2023-03-29T18:55:45.997Z,2.95
2023-03-29T18:58:14.041Z,2.60
2023-03-29T19:00:41.640Z,2.20
2023-03-29T19:03:08.845Z,2.17
2023-03-29T19:05:39.190Z,1.85
2023-03-29T19:08:06.884Z,2.28
2023-03-29T19:10:37.849Z,1.98
2023-03-29T19:13:04.448Z,2.35
2023-03-29T19:15:32.409Z,2.35
2023-03-29T19:17:58.936Z,1.83
2023-03-29T19:20:25.709Z,1.70
2023-03-29T19:22:53.407Z,2.17
2023-03-29T19:25:19.881Z,2.17
2023-03-29T19:27:46.370Z,1.90
2023-03-29T19:30:14.503Z,2.03
2023-03-29T19:32:40.921Z,2.08
2023-03-29T19:35:09.517Z,2.03
2023-03-29T19:37:36.408Z,1.88
2023-03-29T19:40:06.175Z,1.98
2023-03-29T19:42:35.945Z,1.40
2023-03-29T19:45:03.802Z,1.75
2023-03-29T19:47:30.560Z,2.03
2023-03-29T19:50:01.071Z,1.58
2023-03-29T19:54:56.527Z,2.00
2023-03-29T19:57:23.853Z,1.83
2023-03-29T19:59:50.903Z,1.70
2023-03-29T20:02:17.538Z,1.90
2023-03-29T20:04:44.276Z,1.55
2023-03-29T20:07:10.838Z,1.70
2023-03-29T20:09:37.712Z,1.52
2023-03-29T20:12:04.791Z,1.55
2023-03-29T20:14:31.457Z,1.70
2023-03-29T20:16:58.427Z,1.80
2023-03-29T20:19:25.341Z,1.73
2023-03-29T20:21:57.353Z,1.55
2023-03-29T20:24:25.114Z,1.60
2023-03-29T20:26:51.968Z,1.65
2023-03-29T20:29:18.870Z,2.10
2023-03-29T20:31:46.252Z,1.63
2023-03-29T20:34:12.859Z,2.03
2023-03-29T20:36:40.344Z,1.70
2023-03-29T20:39:08.162Z,1.75
2023-03-29T20:41:38.096Z,1.60
2023-03-29T20:44:05.594Z,2.03
2023-03-29T20:46:35.629Z,2.15
2023-03-29T20:49:07.284Z,1.58
2023-03-29T20:51:33.820Z,1.60
2023-03-29T20:54:04.937Z,2.22
2023-03-29T20:56:33.821Z,1.50
2023-03-29T20:59:00.659Z,1.52
2023-03-29T21:01:29.511Z,1.60
2023-03-29T21:03:56.321Z,2.03
2023-03-29T21:06:24.429Z,1.40
2023-03-29T21:08:52.618Z,1.50
2023-03-29T21:11:20.834Z,2.15
2023-03-29T21:13:47.618Z,1.90
2023-03-29T21:16:14.179Z,1.80
2023-03-29T21:18:40.903Z,1.83
2023-03-29T21:21:08.593Z,1.45
2023-03-29T21:23:36.133Z,1.63
2023-03-29T21:26:04.057Z,2.13
2023-03-29T21:28:30.830Z,1.55
2023-03-29T21:30:57.527Z,1.90
2023-03-29T21:33:24.063Z,1.70
2023-03-29T21:35:50.761Z,1.92
2023-03-29T21:38:17.693Z,1.90
2023-03-29T21:40:44.165Z,2.42
2023-03-29T21:43:10.817Z,1.60
2023-03-29T21:45:37.424Z,1.73
2023-03-29T21:48:04.229Z,1.83
2023-03-29T21:50:33.344Z,2.00
2023-03-29T21:53:02.056Z,1.50
2023-03-29T21:55:28.655Z,1.65
2023-03-29T21:57:55.268Z,1.60
2023-03-29T22:00:22.303Z,2.20
2023-03-29T22:02:49.069Z,1.70
2023-03-29T22:05:16.480Z,2.65
2023-03-29T22:07:43.262Z,1.83
2023-03-29T22:10:12.364Z,2.50
2023-03-29T22:12:39.634Z,2.05
2023-03-29T22:15:07.805Z,2.15
2023-03-29T22:17:35.725Z,1.98
2023-03-29T22:20:04.499Z,2.28
2023-03-29T22:22:30.965Z,2.22
2023-03-29T22:24:57.501Z,2.08
2023-03-29T22:27:23.952Z,2.00
2023-03-29T22:29:50.739Z,2.08
2023-03-29T22:32:17.188Z,2.33
2023-03-29T22:34:43.998Z,2.35
2023-03-29T22:37:10.610Z,2.05
2023-03-29T22:39:37.342Z,1.88
2023-03-29T22:42:04.064Z,2.22
2023-03-29T22:44:30.702Z,1.90
2023-03-29T22:46:57.356Z,2.00
2023-03-29T22:49:23.998Z,2.97
2023-03-29T22:51:50.399Z,2.03
2023-03-29T22:54:16.930Z,2.53
2023-03-29T22:56:44.490Z,2.42
2023-03-29T22:59:11.063Z,2.70
2023-03-29T23:01:37.686Z,2.10
2023-03-29T23:04:04.536Z,2.22
2023-03-29T23:06:31.071Z,1.70
2023-03-29T23:08:57.731Z,2.50
2023-03-29T23:11:24.385Z,2.08
2023-03-29T23:13:50.952Z,2.30
2023-03-29T23:16:20.797Z,2.00
2023-03-29T23:18:47.977Z,2.47
2023-03-29T23:21:14.523Z,2.10
2023-03-29T23:23:41.243Z,2.22
2023-03-29T23:26:11.334Z,2.08
2023-03-29T23:28:38.068Z,2.30
2023-03-29T23:31:06.373Z,2.75
2023-03-29T23:33:35.412Z,2.28
2023-03-29T23:36:04.618Z,2.42
2023-03-29T23:38:34.271Z,2.17
2023-03-29T23:41:02.785Z,2.20
2023-03-29T23:43:32.671Z,2.25
2023-03-29T23:46:11.085Z,2.30
2023-03-29T23:48:38.572Z,2.88
2023-03-29T23:51:07.611Z,2.30
2023-03-29T23:53:34.332Z,2.30
2023-03-29T23:56:03.104Z,2.58
2023-03-29T23:58:35.042Z,2.55
